createdAt,value
2019-04-03T00:01:16.736Z,284.49
2019-04-03T00:02:47.130Z,284.51
2019-04-03T00:04:15.904Z,284.53
2019-04-03T00:05:45.343Z,284.55
2019-04-03T00:07:14.064Z,284.53
2019-04-03T00:08:42.792Z,284.5
2019-04-03T00:10:12.382Z,284.49
2019-04-03T00:11:41.103Z,284.5
2019-04-03T00:13:11.073Z,284.5
2019-04-03T00:14:42.148Z,284.52
2019-04-03T00:16:12.063Z,284.51
2019-04-03T00:17:40.846Z,284.5
2019-04-03T00:19:10.198Z,284.49
2019-04-03T00:20:39.104Z,284.48
2019-04-03T00:22:09.590Z,284.45
2019-04-03T00:23:38.545Z,284.44
2019-04-03T00:25:07.351Z,284.43
2019-04-03T00:26:37.026Z,284.4
2019-04-03T00:28:05.983Z,284.38
2019-04-03T00:29:34.706Z,284.35
2019-04-03T00:31:03.424Z,284.3
2019-04-03T00:32:33.295Z,284.24
2019-04-03T00:34:02.390Z,284.21
2019-04-03T00:35:31.985Z,284.18
2019-04-03T00:37:00.946Z,284.15
2019-04-03T00:38:29.745Z,284.07
2019-04-03T00:39:59.593Z,283.99
2019-04-03T00:41:30.227Z,283.91
2019-04-03T00:42:59.749Z,283.87
2019-04-03T00:44:29.265Z,283.84
2019-04-03T00:45:59.999Z,283.82
2019-04-03T00:47:30.785Z,283.78
2019-04-03T00:49:01.346Z,283.75
2019-04-03T00:50:31.992Z,283.68
2019-04-03T00:52:03.025Z,283.62
2019-04-03T00:53:33.267Z,283.6
2019-04-03T00:55:02.147Z,283.57
2019-04-03T00:56:31.745Z,283.52
2019-04-03T00:58:01.826Z,283.46
2019-04-03T00:59:31.427Z,283.38
2019-04-03T01:01:01.827Z,283.4
2019-04-03T01:02:33.106Z,283.43
2019-04-03T01:04:03.834Z,283.46
2019-04-03T01:05:33.987Z,283.52
2019-04-03T01:07:04.068Z,283.49
2019-04-03T01:08:34.637Z,283.42
2019-04-03T01:10:04.869Z,283.36
2019-04-03T01:11:35.379Z,283.32
2019-04-03T01:13:06.466Z,283.26
2019-04-03T01:14:37.028Z,283.29
2019-04-03T01:16:08.786Z,283.29
2019-04-03T01:17:39.996Z,283.26
2019-04-03T01:19:11.107Z,283.26
2019-04-03T01:20:41.667Z,283.22
2019-04-03T01:22:12.307Z,283.14
2019-04-03T01:23:43.027Z,283.06
2019-04-03T01:25:13.828Z,282.98
2019-04-03T01:26:45.573Z,282.94
2019-04-03T01:28:16.788Z,282.95
2019-04-03T01:29:47.665Z,282.92
2019-04-03T01:31:19.425Z,282.98
2019-04-03T01:32:48.230Z,282.95
2019-04-03T01:34:17.904Z,282.91
2019-04-03T01:35:47.933Z,282.88
2019-04-03T01:37:18.506Z,282.84
2019-04-03T01:38:49.587Z,282.8
2019-04-03T01:40:20.824Z,282.77
2019-04-03T01:41:51.360Z,282.71
2019-04-03T01:43:21.540Z,282.67
2019-04-03T01:44:54.973Z,282.62
2019-04-03T01:46:27.551Z,282.56
2019-04-03T01:47:58.123Z,282.49
2019-04-03T01:49:28.309Z,282.46
2019-04-03T01:50:59.156Z,282.45
2019-04-03T01:52:31.010Z,282.44
2019-04-03T01:54:02.847Z,282.43
2019-04-03T01:55:34.455Z,282.42
2019-04-03T01:57:05.956Z,282.4
2019-04-03T01:58:36.321Z,282.37
2019-04-03T02:00:07.428Z,282.28
2019-04-03T02:01:38.623Z,282.18
2019-04-03T02:03:09.702Z,282.13
2019-04-03T02:04:41.952Z,282.1
2019-04-03T02:06:13.417Z,282.11
2019-04-03T02:07:44.606Z,282.16
2019-04-03T02:09:15.972Z,282.18
2019-04-03T02:10:45.394Z,282.13
2019-04-03T02:12:19.655Z,282.07
2019-04-03T02:13:50.898Z,281.99
2019-04-03T02:15:21.527Z,281.94
2019-04-03T02:16:53.416Z,281.9
2019-04-03T02:18:23.546Z,281.9
2019-04-03T02:19:56.323Z,281.88
2019-04-03T02:21:27.651Z,281.89
2019-04-03T02:22:59.247Z,281.91
2019-04-03T02:24:31.425Z,281.92
2019-04-03T02:26:02.377Z,281.92
2019-04-03T02:27:33.188Z,281.92
2019-04-03T02:29:04.387Z,281.85
2019-04-03T02:30:37.909Z,281.83
2019-04-03T02:32:06.867Z,281.88
2019-04-03T02:33:36.120Z,281.86
2019-04-03T02:35:07.677Z,281.81
2019-04-03T02:36:37.424Z,281.76
2019-04-03T02:38:07.112Z,281.71
2019-04-03T02:39:37.922Z,281.7
2019-04-03T02:41:09.828Z,281.76
2019-04-03T02:42:41.189Z,281.71
2019-04-03T02:44:11.359Z,281.73
2019-04-03T02:45:42.244Z,281.79
2019-04-03T02:47:11.267Z,281.71
2019-04-03T02:48:43.428Z,281.65
2019-04-03T02:50:14.285Z,281.69
2019-04-03T02:51:44.308Z,281.68
2019-04-03T02:53:13.576Z,281.64
2019-04-03T02:54:42.394Z,281.61
2019-04-03T02:56:12.619Z,281.55
2019-04-03T02:57:42.708Z,281.47
2019-04-03T02:59:11.508Z,281.49
2019-04-03T03:00:40.228Z,281.48
2019-04-03T03:02:11.233Z,281.47
2019-04-03T03:03:42.464Z,281.48
2019-04-03T03:05:13.452Z,281.47
2019-04-03T03:06:42.254Z,281.46
2019-04-03T03:08:14.634Z,281.47
2019-04-03T03:09:46.575Z,281.47
2019-04-03T03:11:18.466Z,281.47
2019-04-03T03:12:49.186Z,281.45
2019-04-03T03:14:18.664Z,281.46
2019-04-03T03:15:49.771Z,281.46
2019-04-03T03:17:22.414Z,281.42
2019-04-03T03:18:53.164Z,281.38
2019-04-03T03:20:22.218Z,281.41
2019-04-03T03:21:51.991Z,281.43
2019-04-03T03:23:23.060Z,281.45
2019-04-03T03:24:54.304Z,281.36
2019-04-03T03:26:23.027Z,281.31
2019-04-03T03:27:52.009Z,281.26
2019-04-03T03:29:27.587Z,281.25
2019-04-03T03:31:07.660Z,281.22
2019-04-03T03:32:40.872Z,281.24
2019-04-03T03:34:11.666Z,281.27
2019-04-03T03:35:50.237Z,281.27
2019-04-03T03:37:21.844Z,281.26
2019-04-03T03:38:51.266Z,281.21
2019-04-03T03:40:21.676Z,281.16
2019-04-03T03:41:50.545Z,281.12
2019-04-03T03:43:19.426Z,281.12
2019-04-03T03:44:51.345Z,281.1
2019-04-03T03:46:20.465Z,281.11
2019-04-03T03:47:49.424Z,281.13
2019-04-03T03:49:22.652Z,281.15
2019-04-03T03:50:55.455Z,281.19
2019-04-03T03:52:28.647Z,281.21
2019-04-03T03:53:58.683Z,281.19
2019-04-03T03:55:30.224Z,281.17
2019-04-03T03:56:59.137Z,281.16
2019-04-03T03:58:30.784Z,281.15
2019-04-03T03:59:59.748Z,281.16
2019-04-03T04:01:31.416Z,281.17
2019-04-03T04:03:01.909Z,281.17
2019-04-03T04:04:31.737Z,281.18
2019-04-03T04:06:02.177Z,281.19
2019-04-03T04:07:31.311Z,281.18
2019-04-03T04:09:00.250Z,281.15
2019-04-03T04:10:35.115Z,281.14
2019-04-03T04:12:10.064Z,281.13
2019-04-03T04:13:39.142Z,281.12
2019-04-03T04:15:09.777Z,281.12
2019-04-03T04:16:42.243Z,281.14
2019-04-03T04:18:14.290Z,281.23
2019-04-03T04:19:45.349Z,281.35
2019-04-03T04:21:16.610Z,281.36
2019-04-03T04:22:48.520Z,281.33
2019-04-03T04:24:20.546Z,281.34
2019-04-03T04:25:49.746Z,281.36
2019-04-03T04:27:18.888Z,281.39
2019-04-03T04:28:48.915Z,281.43
2019-04-03T04:30:17.907Z,281.42
2019-04-03T04:31:48.870Z,281.42
2019-04-03T04:33:21.431Z,281.43
2019-04-03T04:34:50.610Z,281.47
2019-04-03T04:36:19.427Z,281.49
2019-04-03T04:37:49.026Z,281.53
2019-04-03T04:39:17.749Z,281.53
2019-04-03T04:40:47.348Z,281.5
2019-04-03T04:42:16.227Z,281.46
2019-04-03T04:43:45.293Z,281.48
2019-04-03T04:45:16.869Z,281.5
2019-04-03T04:46:48.546Z,281.52
2019-04-03T04:48:21.432Z,281.53
2019-04-03T04:49:51.604Z,281.52
2019-04-03T04:51:23.865Z,281.52
2019-04-03T04:52:56.654Z,281.52
2019-04-03T04:54:28.698Z,281.57
2019-04-03T04:56:00.387Z,281.6
2019-04-03T04:57:30.073Z,281.63
2019-04-03T04:58:58.947Z,281.63
2019-04-03T05:00:29.453Z,281.62
2019-04-03T05:01:59.109Z,281.62
2019-04-03T05:03:29.268Z,281.63
2019-04-03T05:05:01.798Z,281.68
2019-04-03T05:06:33.749Z,281.74
2019-04-03T05:08:02.662Z,281.75
2019-04-03T05:09:34.323Z,281.75
2019-04-03T05:11:05.522Z,281.78
2019-04-03T05:12:38.688Z,281.82
2019-04-03T05:14:13.909Z,281.86
2019-04-03T05:15:42.748Z,281.83
2019-04-03T05:17:12.467Z,281.81
2019-04-03T05:18:41.377Z,281.79
2019-04-03T05:20:11.269Z,281.77
2019-04-03T05:21:40.066Z,281.77
2019-04-03T05:23:08.866Z,281.79
2019-04-03T05:24:37.665Z,281.85
2019-04-03T05:26:07.266Z,281.86
2019-04-03T05:27:38.863Z,281.84
2019-04-03T05:29:09.653Z,281.85
2019-04-03T05:30:41.665Z,281.85
2019-04-03T05:32:10.945Z,281.83
2019-04-03T05:33:41.958Z,281.85
2019-04-03T05:35:13.110Z,281.9
2019-04-03T05:36:44.948Z,281.95
2019-04-03T05:38:14.789Z,281.97
2019-04-03T05:39:44.385Z,281.99
2019-04-03T05:41:13.106Z,282.01
2019-04-03T05:42:44.543Z,282.03
2019-04-03T05:44:13.587Z,282.05
2019-04-03T05:45:46.783Z,282.05
2019-04-03T05:47:16.629Z,282.05
2019-04-03T05:48:45.978Z,282.04
2019-04-03T05:50:18.626Z,282.04
2019-04-03T05:51:48.623Z,282.04
2019-04-03T05:53:18.392Z,282.05
2019-04-03T05:54:49.501Z,282.07
2019-04-03T05:56:18.620Z,282.09
2019-04-03T05:57:50.701Z,282.1
2019-04-03T05:59:19.420Z,282.12
2019-04-03T06:00:48.196Z,282.14
2019-04-03T06:02:22.039Z,282.15
2019-04-03T06:03:51.493Z,282.16
2019-04-03T06:05:24.312Z,282.17
2019-04-03T06:06:53.273Z,282.18
2019-04-03T06:08:24.724Z,282.17
2019-04-03T06:09:53.814Z,282.16
2019-04-03T06:11:27.888Z,282.15
2019-04-03T06:12:56.914Z,282.15
2019-04-03T06:14:28.529Z,282.14
2019-04-03T06:15:58.686Z,282.14
2019-04-03T06:17:28.526Z,282.15
2019-04-03T06:18:58.799Z,282.17
2019-04-03T06:20:28.641Z,282.16
2019-04-03T06:21:57.401Z,282.16
2019-04-03T06:23:27.086Z,282.17
2019-04-03T06:24:57.325Z,282.18
2019-04-03T06:26:26.329Z,282.21
2019-04-03T06:27:58.057Z,282.23
2019-04-03T06:29:27.488Z,282.22
2019-04-03T06:30:57.135Z,282.21
2019-04-03T06:32:29.816Z,282.24
2019-04-03T06:33:59.326Z,282.25
2019-04-03T06:35:28.338Z,282.26
2019-04-03T06:36:57.165Z,282.27
2019-04-03T06:38:29.325Z,282.29
2019-04-03T06:39:58.599Z,282.3
2019-04-03T06:41:31.164Z,282.31
2019-04-03T06:43:02.064Z,282.3
2019-04-03T06:44:31.160Z,282.32
2019-04-03T06:46:02.520Z,282.33
2019-04-03T06:47:32.138Z,282.35
2019-04-03T06:49:02.041Z,282.35
2019-04-03T06:50:31.880Z,282.37
2019-04-03T06:52:00.597Z,282.38
2019-04-03T06:53:32.837Z,282.42
2019-04-03T06:55:03.111Z,282.45
2019-04-03T06:56:33.959Z,282.47
2019-04-03T06:58:02.677Z,282.47
2019-04-03T06:59:32.277Z,282.49
2019-04-03T07:01:01.240Z,282.52
2019-04-03T07:02:33.156Z,282.57
2019-04-03T07:04:02.127Z,282.6
2019-04-03T07:05:32.768Z,282.6
2019-04-03T07:07:01.810Z,282.62
2019-04-03T07:08:40.651Z,282.67
2019-04-03T07:10:23.884Z,282.71
2019-04-03T07:11:57.181Z,282.75
2019-04-03T07:13:29.383Z,282.8
2019-04-03T07:14:59.905Z,282.84
2019-04-03T07:16:29.189Z,282.85
2019-04-03T07:18:00.884Z,282.85
2019-04-03T07:19:34.470Z,282.89
2019-04-03T07:21:03.429Z,282.91
2019-04-03T07:22:33.351Z,282.93
2019-04-03T07:24:02.281Z,282.94
2019-04-03T07:25:31.663Z,282.96
2019-04-03T07:27:05.959Z,282.97
2019-04-03T07:28:36.334Z,283
2019-04-03T07:30:05.434Z,283.04
2019-04-03T07:31:35.112Z,283.03
2019-04-03T07:33:05.602Z,283.05
2019-04-03T07:34:38.792Z,283.08
2019-04-03T07:36:11.276Z,283.09
2019-04-03T07:37:42.960Z,283.14
2019-04-03T07:39:16.948Z,283.19
2019-04-03T07:40:52.351Z,283.23
2019-04-03T07:42:24.226Z,283.26
2019-04-03T07:43:53.990Z,283.28
2019-04-03T07:45:23.429Z,283.29
2019-04-03T07:46:54.710Z,283.32
2019-04-03T07:48:24.628Z,283.38
2019-04-03T07:49:53.356Z,283.4
2019-04-03T07:51:22.155Z,283.47
2019-04-03T07:52:53.061Z,283.53
2019-04-03T07:54:22.656Z,283.59
2019-04-03T07:55:56.953Z,283.59
2019-04-03T07:57:26.855Z,283.59
2019-04-03T07:59:02.632Z,283.63
2019-04-03T08:00:36.212Z,283.66
2019-04-03T08:02:08.150Z,283.65
2019-04-03T08:03:37.039Z,283.66
2019-04-03T08:05:06.991Z,283.68
2019-04-03T08:06:36.313Z,283.7
2019-04-03T08:08:07.513Z,283.71
2019-04-03T08:09:51.050Z,283.76
2019-04-03T08:11:21.107Z,283.79
2019-04-03T08:12:50.077Z,283.83
2019-04-03T08:14:19.947Z,283.87
2019-04-03T08:15:50.068Z,283.89
2019-04-03T08:17:19.467Z,283.95
2019-04-03T08:18:51.710Z,284
2019-04-03T08:20:25.670Z,283.97
2019-04-03T08:21:55.271Z,284
2019-04-03T08:23:24.065Z,284.06
2019-04-03T08:24:53.641Z,284.08
2019-04-03T08:26:26.634Z,284.05
2019-04-03T08:28:00.692Z,284.06
2019-04-03T08:29:31.023Z,284.08
2019-04-03T08:31:10.346Z,284.09
2019-04-03T08:32:41.306Z,284.05
2019-04-03T08:34:21.678Z,284.03
2019-04-03T08:35:50.789Z,284.02
2019-04-03T08:37:29.084Z,284.02
2019-04-03T08:39:02.220Z,284.07
2019-04-03T08:40:31.212Z,284.05
2019-04-03T08:42:02.353Z,284.08
2019-04-03T08:43:32.351Z,284.12
2019-04-03T08:45:01.910Z,284.17
2019-04-03T08:46:31.028Z,284.18
2019-04-03T08:48:00.861Z,284.11
2019-04-03T08:49:31.707Z,284.13
2019-04-03T08:51:03.725Z,284.14
2019-04-03T08:52:33.023Z,284.16
2019-04-03T08:54:02.226Z,284.13
2019-04-03T08:55:30.949Z,284.11
2019-04-03T08:57:00.119Z,284.17
2019-04-03T08:58:31.504Z,284.23
2019-04-03T09:00:01.990Z,284.27
2019-04-03T09:01:30.867Z,284.35
2019-04-03T09:02:59.664Z,284.44
2019-04-03T09:04:28.466Z,284.5
2019-04-03T09:06:00.966Z,284.57
2019-04-03T09:07:30.946Z,284.63
2019-04-03T09:09:02.705Z,284.69
2019-04-03T09:10:32.120Z,284.81
2019-04-03T09:12:07.239Z,284.97
2019-04-03T09:13:36.946Z,285.12
2019-04-03T09:15:05.908Z,285.26
2019-04-03T09:16:36.806Z,285.29
2019-04-03T09:18:06.841Z,285.36
2019-04-03T09:19:36.624Z,285.43
2019-04-03T09:21:05.343Z,285.33
2019-04-03T09:22:34.268Z,285.27
2019-04-03T09:24:04.073Z,285.22
2019-04-03T09:25:33.027Z,285.1
2019-04-03T09:27:01.964Z,284.99
2019-04-03T09:28:30.792Z,285
2019-04-03T09:30:00.386Z,285.03
2019-04-03T09:31:29.751Z,285.03
2019-04-03T09:33:00.336Z,284.97
2019-04-03T09:34:30.480Z,284.98
2019-04-03T09:36:04.544Z,284.9
2019-04-03T09:37:36.663Z,284.79
2019-04-03T09:39:07.584Z,284.84
2019-04-03T09:40:36.716Z,285
2019-04-03T09:42:05.741Z,285.12
2019-04-03T09:43:34.464Z,285.19
2019-04-03T09:45:04.166Z,285.26
2019-04-03T09:46:35.989Z,285.31
2019-04-03T09:48:05.590Z,285.33
2019-04-03T09:49:35.189Z,285.36
2019-04-03T09:51:16.003Z,285.38
2019-04-03T09:52:55.383Z,285.42
2019-04-03T09:54:27.252Z,285.38
2019-04-03T09:55:58.225Z,285.44
2019-04-03T09:57:28.641Z,285.48
2019-04-03T09:59:01.665Z,285.5
2019-04-03T10:00:30.735Z,285.38
2019-04-03T10:02:00.465Z,285.23
2019-04-03T10:03:31.108Z,285.11
2019-04-03T10:05:02.746Z,285.07
2019-04-03T10:06:36.293Z,284.99
2019-04-03T10:08:07.241Z,284.86
2019-04-03T10:09:39.090Z,284.9
2019-04-03T10:11:14.829Z,285.04
2019-04-03T10:12:54.122Z,285.25
2019-04-03T10:14:23.505Z,285.39
2019-04-03T10:15:53.026Z,285.4
2019-04-03T10:17:21.941Z,285.58
2019-04-03T10:18:50.784Z,285.66
2019-04-03T10:20:21.990Z,285.72
2019-04-03T10:21:52.839Z,285.67
2019-04-03T10:23:22.868Z,285.7
2019-04-03T10:24:52.545Z,285.66
2019-04-03T10:26:21.599Z,285.54
2019-04-03T10:27:50.625Z,285.49
2019-04-03T10:29:23.581Z,285.42
2019-04-03T10:30:53.433Z,285.41
2019-04-03T10:32:23.988Z,285.45
2019-04-03T10:33:58.708Z,285.54
2019-04-03T10:35:28.436Z,285.53
2019-04-03T10:36:57.264Z,285.47
2019-04-03T10:38:26.295Z,285.4
2019-04-03T10:39:58.466Z,285.32
2019-04-03T10:41:28.358Z,285.24
2019-04-03T10:43:00.463Z,285.19
2019-04-03T10:44:35.905Z,285.02
2019-04-03T10:46:04.624Z,284.85
2019-04-03T10:47:46.889Z,284.82
2019-04-03T10:49:16.629Z,284.78
2019-04-03T10:50:47.264Z,284.7
2019-04-03T10:52:18.790Z,284.66
2019-04-03T10:53:48.885Z,284.7
2019-04-03T10:55:21.324Z,284.69
2019-04-03T10:56:50.231Z,284.73
2019-04-03T10:58:19.110Z,284.75
2019-04-03T10:59:51.916Z,284.8
2019-04-03T11:01:24.790Z,284.87
2019-04-03T11:02:54.046Z,284.93
2019-04-03T11:04:22.866Z,284.99
2019-04-03T11:05:51.715Z,285.05
2019-04-03T11:07:20.626Z,285
2019-04-03T11:08:49.345Z,285.09
2019-04-03T11:10:19.003Z,285.22
2019-04-03T11:11:49.026Z,285.35
2019-04-03T11:13:18.838Z,285.5
2019-04-03T11:14:48.210Z,285.7
2019-04-03T11:16:19.666Z,285.8
2019-04-03T11:17:49.037Z,285.85
2019-04-03T11:19:21.052Z,285.88
2019-04-03T11:20:52.097Z,285.92
2019-04-03T11:22:21.752Z,285.86
2019-04-03T11:23:51.420Z,285.87
2019-04-03T11:25:21.210Z,285.95
2019-04-03T11:26:51.650Z,285.97
2019-04-03T11:28:22.712Z,285.98
2019-04-03T11:29:52.014Z,285.96
2019-04-03T11:31:33.622Z,285.86
2019-04-03T11:33:13.415Z,285.84
2019-04-03T11:34:42.949Z,285.95
2019-04-03T11:36:11.746Z,286.01
2019-04-03T11:37:41.545Z,285.97
2019-04-03T11:39:17.610Z,285.86
2019-04-03T11:40:47.740Z,285.84
2019-04-03T11:42:30.540Z,285.9
2019-04-03T11:44:00.149Z,286.02
2019-04-03T11:45:29.746Z,286.17
2019-04-03T11:46:58.545Z,286.41
2019-04-03T11:48:27.746Z,286.68
2019-04-03T11:49:58.145Z,286.77
2019-04-03T11:51:29.523Z,286.75
2019-04-03T11:53:07.574Z,286.77
2019-04-03T11:54:39.194Z,286.76
2019-04-03T11:56:10.892Z,286.81
2019-04-03T11:57:44.026Z,286.66
2019-04-03T11:59:13.927Z,286.65
2019-04-03T12:00:44.135Z,286.74
2019-04-03T12:02:13.992Z,286.51
2019-04-03T12:03:43.586Z,286.24
2019-04-03T12:05:15.302Z,286.09
2019-04-03T12:06:51.929Z,286.03
2019-04-03T12:08:22.949Z,285.93
2019-04-03T12:09:52.067Z,285.95
2019-04-03T12:11:21.189Z,286.02
2019-04-03T12:12:50.466Z,286.17
2019-04-03T12:14:22.786Z,286.34
2019-04-03T12:15:53.134Z,286.53
2019-04-03T12:17:29.097Z,286.73
2019-04-03T12:19:00.830Z,286.78
2019-04-03T12:20:29.668Z,287.05
2019-04-03T12:21:58.712Z,287.25
2019-04-03T12:23:27.788Z,287.11
2019-04-03T12:24:57.123Z,286.9
2019-04-03T12:26:26.477Z,286.98
2019-04-03T12:27:55.362Z,286.96
2019-04-03T12:29:27.572Z,286.87
2019-04-03T12:30:56.451Z,286.76
2019-04-03T12:32:36.263Z,286.74
2019-04-03T12:34:16.785Z,286.5
2019-04-03T12:35:47.745Z,286.4
2019-04-03T12:37:18.340Z,286.54
2019-04-03T12:38:48.878Z,286.6
2019-04-03T12:40:17.746Z,286.45
2019-04-03T12:41:48.544Z,286.31
2019-04-03T12:43:18.787Z,286.16
2019-04-03T12:44:47.831Z,285.97
2019-04-03T12:46:17.271Z,285.76
2019-04-03T12:47:49.577Z,285.75
2019-04-03T12:49:19.964Z,285.69
2019-04-03T12:50:54.494Z,285.6
2019-04-03T12:52:24.234Z,285.56
2019-04-03T12:53:54.345Z,285.61
2019-04-03T12:55:25.547Z,285.63
2019-04-03T12:56:55.879Z,285.53
2019-04-03T12:58:24.948Z,285.75
2019-04-03T12:59:53.667Z,286.07
2019-04-03T13:01:23.587Z,286.35
2019-04-03T13:02:52.872Z,286.28
2019-04-03T13:04:25.003Z,286.3
2019-04-03T13:05:59.828Z,286.39
2019-04-03T13:07:28.550Z,286.5
2019-04-03T13:08:58.478Z,286.48
2019-04-03T13:10:39.058Z,286.41
2019-04-03T13:12:16.491Z,286.43
2019-04-03T13:13:46.999Z,286.44
2019-04-03T13:15:15.906Z,286.5
2019-04-03T13:16:47.658Z,286.47
2019-04-03T13:18:17.800Z,286.27
2019-04-03T13:19:47.218Z,286.02
2019-04-03T13:21:18.427Z,285.86
2019-04-03T13:22:48.303Z,285.92
2019-04-03T13:24:22.467Z,286.08
2019-04-03T13:25:53.931Z,286
2019-04-03T13:27:23.345Z,286.03
2019-04-03T13:28:52.191Z,285.84
2019-04-03T13:30:21.328Z,285.7
2019-04-03T13:31:51.984Z,285.68
2019-04-03T13:33:22.704Z,285.57
2019-04-03T13:34:52.222Z,285.34
2019-04-03T13:36:24.372Z,285.33
2019-04-03T13:37:55.519Z,285.28
2019-04-03T13:39:30.892Z,285.12
2019-04-03T13:41:04.766Z,285.19
2019-04-03T13:42:36.708Z,285.07
2019-04-03T13:44:05.501Z,285.02
2019-04-03T13:45:36.863Z,284.93
2019-04-03T13:47:08.168Z,284.88
2019-04-03T13:48:39.690Z,284.81
2019-04-03T13:50:08.724Z,284.79
2019-04-03T13:51:38.399Z,284.72
2019-04-03T13:53:07.666Z,284.67
2019-04-03T13:54:36.803Z,284.64
2019-04-03T13:56:06.578Z,284.61
2019-04-03T13:57:41.910Z,284.56
2019-04-03T13:59:10.946Z,284.58
2019-04-03T14:00:40.066Z,284.61
2019-04-03T14:02:10.822Z,284.57
2019-04-03T14:03:44.175Z,284.63
2019-04-03T14:05:13.112Z,284.71
2019-04-03T14:06:43.984Z,284.83
2019-04-03T14:08:13.527Z,285.04
2019-04-03T14:09:43.347Z,285.14
2019-04-03T14:11:12.065Z,285.16
2019-04-03T14:12:45.109Z,285.18
2019-04-03T14:14:20.147Z,285.12
2019-04-03T14:15:49.094Z,285.22
2019-04-03T14:17:19.351Z,285.23
2019-04-03T14:18:49.759Z,285.31
2019-04-03T14:20:23.088Z,285.34
2019-04-03T14:21:53.590Z,285.34
2019-04-03T14:23:22.626Z,285.24
2019-04-03T14:24:57.574Z,285.25
2019-04-03T14:26:26.626Z,285.27
2019-04-03T14:27:55.601Z,285.17
2019-04-03T14:29:25.191Z,285.02
2019-04-03T14:30:56.021Z,285.12
2019-04-03T14:32:26.706Z,285.24
2019-04-03T14:33:57.342Z,285.22
2019-04-03T14:35:54.826Z,285.12
2019-04-03T14:37:29.828Z,285.31
2019-04-03T14:38:58.841Z,285.42
2019-04-03T14:40:29.111Z,285.38
2019-04-03T14:41:59.804Z,285.16
2019-04-03T14:43:28.706Z,285.11
2019-04-03T14:44:57.813Z,285.15
2019-04-03T14:46:29.072Z,285.07
2019-04-03T14:48:00.724Z,285.15
2019-04-03T14:49:31.202Z,285.04
2019-04-03T14:51:06.185Z,284.89
2019-04-03T14:52:42.975Z,284.82
2019-04-03T14:54:14.225Z,284.85
2019-04-03T14:55:54.620Z,284.94
2019-04-03T14:57:28.025Z,284.91
2019-04-03T14:58:58.853Z,284.87
2019-04-03T15:00:33.346Z,284.8
2019-04-03T15:02:02.066Z,284.83
2019-04-03T15:03:34.106Z,284.79
2019-04-03T15:05:06.522Z,284.76
2019-04-03T15:06:38.390Z,284.63
2019-04-03T15:08:10.687Z,284.6
2019-04-03T15:09:39.911Z,284.62
2019-04-03T15:11:08.863Z,284.55
2019-04-03T15:12:39.706Z,284.52
2019-04-03T15:14:10.152Z,284.56
2019-04-03T15:15:40.547Z,284.63
2019-04-03T15:17:10.944Z,284.72
2019-04-03T15:18:42.028Z,284.7
2019-04-03T15:20:13.342Z,284.74
2019-04-03T15:21:45.986Z,284.74
2019-04-03T15:23:16.257Z,284.76
2019-04-03T15:24:49.388Z,284.66
2019-04-03T15:26:21.726Z,284.58
2019-04-03T15:27:52.145Z,284.59
2019-04-03T15:29:21.994Z,284.62
2019-04-03T15:30:51.986Z,284.68
2019-04-03T15:32:24.143Z,284.73
2019-04-03T15:33:55.386Z,284.69
2019-04-03T15:35:25.826Z,284.69
2019-04-03T15:36:56.624Z,284.56
2019-04-03T15:38:26.652Z,284.56
2019-04-03T15:40:02.464Z,284.57
2019-04-03T15:41:34.433Z,284.56
2019-04-03T15:43:34.836Z,284.53
2019-04-03T15:45:03.751Z,284.44
2019-04-03T15:46:35.109Z,284.44
2019-04-03T15:48:04.232Z,284.46
2019-04-03T15:49:33.960Z,284.47
2019-04-03T15:51:05.495Z,284.58
2019-04-03T15:52:37.064Z,284.6
2019-04-03T15:54:05.982Z,284.57
2019-04-03T15:55:38.506Z,284.56
2019-04-03T15:57:08.303Z,284.66
2019-04-03T15:58:37.442Z,284.69
2019-04-03T16:00:07.985Z,284.66
2019-04-03T16:01:39.433Z,284.65
2019-04-03T16:03:09.984Z,284.56
2019-04-03T16:04:39.663Z,284.49
2019-04-03T16:06:10.145Z,284.54
2019-04-03T16:07:41.405Z,284.51
2019-04-03T16:09:12.354Z,284.51
2019-04-03T16:10:41.982Z,284.42
2019-04-03T16:12:12.454Z,284.34
2019-04-03T16:13:42.146Z,284.22
2019-04-03T16:15:14.224Z,284.11
2019-04-03T16:16:43.110Z,284.07
2019-04-03T16:18:13.639Z,284.12
2019-04-03T16:19:44.256Z,284.11
2019-04-03T16:21:15.053Z,284.1
2019-04-03T16:22:44.149Z,284.14
2019-04-03T16:24:17.749Z,284.14
2019-04-03T16:25:48.378Z,284.2
2019-04-03T16:27:19.468Z,284.23
2019-04-03T16:28:48.650Z,284.24
2019-04-03T16:30:21.909Z,284.26
2019-04-03T16:31:53.260Z,284.27
2019-04-03T16:33:29.000Z,284.18
2019-04-03T16:34:57.944Z,284.18
2019-04-03T16:36:30.223Z,284.1
2019-04-03T16:38:02.149Z,284.02
2019-04-03T16:39:32.842Z,283.9
2019-04-03T16:41:03.521Z,283.79
2019-04-03T16:42:32.707Z,283.72
2019-04-03T16:44:01.904Z,283.64
2019-04-03T16:45:31.746Z,283.59
2019-04-03T16:47:00.464Z,283.57
2019-04-03T16:48:29.900Z,283.54
2019-04-03T16:50:00.628Z,283.54
2019-04-03T16:51:31.672Z,283.48
2019-04-03T16:53:03.023Z,283.46
2019-04-03T16:54:34.626Z,283.46
2019-04-03T16:56:05.508Z,283.44
2019-04-03T16:57:35.663Z,283.46
2019-04-03T16:59:07.332Z,283.46
2019-04-03T17:00:40.844Z,283.41
2019-04-03T17:02:12.623Z,283.35
2019-04-03T17:03:41.503Z,283.28
2019-04-03T17:05:11.122Z,283.24
2019-04-03T17:06:42.738Z,283.24
2019-04-03T17:08:11.584Z,283.19
2019-04-03T17:09:43.109Z,283.18
2019-04-03T17:11:12.719Z,283.16
2019-04-03T17:12:41.626Z,283.18
2019-04-03T17:14:10.878Z,283.17
2019-04-03T17:15:40.784Z,283.13
2019-04-03T17:17:13.159Z,283.09
2019-04-03T17:18:47.062Z,283.09
2019-04-03T17:20:17.166Z,283.04
2019-04-03T17:21:46.226Z,282.99
2019-04-03T17:23:17.830Z,282.99
2019-04-03T17:24:53.940Z,282.97
2019-04-03T17:26:25.703Z,282.95
2019-04-03T17:28:06.964Z,282.94
2019-04-03T17:29:39.189Z,282.89
2019-04-03T17:31:08.603Z,282.85
2019-04-03T17:32:37.828Z,282.81
2019-04-03T17:34:07.843Z,282.78
2019-04-03T17:35:37.705Z,282.76
2019-04-03T17:37:06.548Z,282.75
2019-04-03T17:38:37.839Z,282.71
2019-04-03T17:40:10.791Z,282.67
2019-04-03T17:41:42.872Z,282.63
2019-04-03T17:43:26.507Z,282.61
2019-04-03T17:44:55.270Z,282.58
2019-04-03T17:46:23.993Z,282.57
2019-04-03T17:47:54.550Z,282.55
2019-04-03T17:49:24.600Z,282.52
2019-04-03T17:50:57.673Z,282.49
2019-04-03T17:52:29.191Z,282.45
2019-04-03T17:53:58.790Z,282.45
2019-04-03T17:55:27.592Z,282.46
2019-04-03T17:56:57.190Z,282.43
2019-04-03T17:58:25.990Z,282.4
2019-04-03T17:59:54.712Z,282.37
2019-04-03T18:01:23.518Z,282.34
2019-04-03T18:02:53.194Z,282.32
2019-04-03T18:04:25.112Z,282.27
2019-04-03T18:05:56.521Z,282.18
2019-04-03T18:07:30.948Z,281.92
2019-04-03T18:09:03.964Z,281.61
2019-04-03T18:10:33.831Z,281.39
2019-04-03T18:12:04.924Z,281.24
2019-04-03T18:13:34.248Z,281.1
2019-04-03T18:15:04.112Z,280.98
2019-04-03T18:16:35.681Z,280.93
2019-04-03T18:18:07.682Z,280.87
2019-04-03T18:19:42.556Z,280.85
2019-04-03T18:21:13.056Z,280.77
2019-04-03T18:22:42.055Z,280.71
2019-04-03T18:24:10.873Z,280.66
2019-04-03T18:25:39.679Z,280.56
2019-04-03T18:27:11.536Z,280.5
2019-04-03T18:28:41.363Z,280.45
2019-04-03T18:30:11.741Z,280.34
2019-04-03T18:31:44.501Z,280.23
2019-04-03T18:33:16.922Z,280.16
2019-04-03T18:34:49.603Z,280.09
2019-04-03T18:36:27.220Z,279.91
2019-04-03T18:38:00.436Z,279.77
2019-04-03T18:39:29.767Z,279.7
2019-04-03T18:40:59.518Z,279.6
2019-04-03T18:42:28.873Z,279.47
2019-04-03T18:43:59.433Z,279.41
2019-04-03T18:45:30.793Z,279.38
2019-04-03T18:46:59.684Z,279.34
2019-04-03T18:48:29.122Z,279.37
2019-04-03T18:50:02.739Z,279.37
2019-04-03T18:51:32.642Z,279.36
2019-04-03T18:53:01.366Z,279.32
2019-04-03T18:54:31.521Z,279.29
2019-04-03T18:56:00.315Z,279.36
2019-04-03T18:57:29.036Z,279.42
2019-04-03T18:58:59.923Z,279.32
2019-04-03T19:00:30.691Z,279.25